Time;durP1;ratioP1;P1;durP2;ratioP2;P2;SDS_P1;SDS_P2;PMS_P1;PMS_P2;Temp;Humidity;BMP_temperature;BMP_pressure;BME280_temperature;BME280_humidity;BME280_pressure;Samples;Min_cycle;Max_cycle;Signal;HPM_P1;HPM_P2
2022/06/14 00:00:56;;;;;;;5.95;2.20;;;15.70;67.00;;;14.82;68.39;96534.94;5000347;28;20056;-68
2022/06/14 00:03:37;;;;;;;6.93;2.30;;;15.70;66.90;;;14.78;69.24;96531.09;4996643;28;20039;-66
2022/06/14 00:06:05;;;;;;;;;;;15.60;67.50;;;14.70;71.60;96527.59;5019011;28;20029;-66
2022/06/14 00:08:31;;;;;;;;;;;15.60;68.00;;;14.68;71.26;96534.13;4989080;28;19917;-66
2022/06/14 00:11:00;;;;;;;;;;;15.60;68.30;;;14.64;71.67;96531.06;4999524;28;19924;-66
2022/06/14 00:13:26;;;;;;;;;;;15.60;68.60;;;14.63;72.05;96536.56;5016708;28;20002;-66
2022/06/14 00:15:51;;;;;;;;;;;15.60;68.70;;;14.61;71.82;96533.31;5006684;28;20329;-66
2022/06/14 00:18:17;;;;;;;;;;;15.60;69.10;;;14.58;71.55;96529.25;4998402;28;19917;-66
2022/06/14 00:20:43;;;;;;;;;;;15.60;68.40;;;14.56;71.55;96536.59;5000134;28;19917;-66
2022/06/14 00:23:09;;;;;;;;;;;15.60;68.10;;;14.54;70.39;96528.03;5008743;28;19917;-66
2022/06/14 00:25:37;;;;;;;;;;;15.60;68.30;;;14.54;72.22;96530.69;4982938;28;20320;-66
2022/06/14 00:28:04;;;;;;;;;;;15.60;68.60;;;14.51;71.74;96536.38;5007247;28;19917;-66
2022/06/14 00:30:29;;;;;;;;;;;15.50;68.80;;;14.50;72.42;96536.59;5032337;28;19925;-66
2022/06/14 00:32:55;;;;;;;;;;;15.50;68.90;;;14.46;72.07;96530.03;5010787;28;19921;-66
2022/06/14 00:35:21;;;;;;;;;;;15.50;69.00;;;14.47;72.09;96529.84;4997257;28;19924;-66
2022/06/14 00:37:46;;;;;;;;;;;15.40;69.30;;;14.44;72.03;96532.91;5002861;28;20067;-66
2022/06/14 00:40:13;;;;;;;;;;;15.40;69.60;;;14.41;73.88;96527.97;5022560;28;19924;-66
2022/06/14 00:42:39;;;;;;;;;;;15.40;69.80;;;14.37;72.71;96526.75;4989429;28;20044;-66
2022/06/14 00:45:08;;;;;;;;;;;15.40;70.10;;;14.38;71.54;96528.38;5037351;28;20344;-66
2022/06/14 00:47:44;;;;;;;;;;;15.40;69.60;;;14.31;72.32;96533.69;5008200;28;20402;-66
2022/06/14 00:50:19;;;;;;;;;;;15.30;69.40;;;14.28;71.92;96528.78;5020351;28;20296;-66
2022/06/14 00:52:50;;;;;;;;;;;15.30;68.90;;;14.24;72.06;96524.91;5022390;28;20342;-66
2022/06/14 00:55:45;;;;;;;;;;;15.20;68.90;;;14.16;72.28;96524.28;5035814;28;19917;-66
2022/06/14 00:58:13;;;;;;;;;;;15.30;69.20;;;14.19;72.56;96529.16;4998557;28;19924;-66
2022/06/14 01:01:00;;;;;;;;;;;15.10;69.30;;;14.20;71.60;96530.78;5036858;28;20384;-66
2022/06/14 01:03:30;;;;;;;;;;;15.20;69.10;;;14.16;72.45;96521.63;5018345;28;20281;-66
2022/06/14 01:06:27;;;;;;;;;;;15.20;69.20;;;14.17;71.51;96523.25;5018229;28;20360;-66
2022/06/14 01:08:56;;;;;;;;;;;15.20;68.70;;;14.15;70.70;96527.94;5004818;28;19921;-66
2022/06/14 01:11:28;;;;;;;;;;;15.20;68.60;;;14.10;71.38;96515.31;5011195;28;19924;-66
2022/06/14 01:13:54;;;;;;;;;;;15.10;69.00;;;14.08;71.98;96523.47;5012982;28;20010;-66
2022/06/14 01:16:20;;;;;;;;;;;15.10;69.40;;;14.04;71.62;96521.44;4997590;28;19917;-66
2022/06/14 01:18:46;;;;;;;;;;;15.10;69.70;;;14.02;72.55;96521.59;5032826;28;19927;-66
2022/06/14 01:21:11;;;;;;;;;;;15.10;69.80;;;14.00;72.86;96515.69;5030807;28;20295;-66
2022/06/14 01:23:37;;;;;;;;;;;15.00;70.10;;;13.98;72.19;96517.72;5043357;28;19924;-66
2022/06/14 01:26:12;;;;;;;;;;;15.00;70.20;;;13.97;73.75;96523.22;5041190;28;20347;-66
2022/06/14 01:28:38;;;;;;;;;;;15.00;70.60;;;13.96;72.92;96521.59;5049149;28;19925;-66
2022/06/14 01:31:05;;;;;;;;;;;15.00;70.80;;;13.94;72.44;96521.78;5025035;28;20012;-66
2022/06/14 01:33:39;;;;;;;;;;;15.00;70.90;;;13.90;73.43;96520.56;5019165;28;19948;-66
2022/06/14 01:36:07;;;;;;;;;;;15.00;70.90;;;13.87;73.63;96520.16;5051318;28;20391;-66
2022/06/14 01:38:33;;;;;;;;;;;14.90;71.00;;;13.85;73.12;96523.00;5017834;28;19926;-66
2022/06/14 01:41:03;;;;;;;;;;;14.80;71.00;;;13.83;73.52;96514.44;5025699;28;19924;-66
2022/06/14 01:43:40;;;;;;;;;;;14.80;71.60;;;13.80;73.50;96509.53;5018709;28;19925;-66
2022/06/14 01:46:30;;;;;;;;;;;14.80;71.50;;;13.76;73.12;96508.31;5011091;28;20269;-66
2022/06/14 01:52:28;;;;;;;;;;;14.70;71.90;;;13.67;73.75;96505.03;5027925;28;20407;-66
2022/06/14 01:55:04;;;;;;;;;;;14.70;72.20;;;13.66;74.85;96502.59;5024402;28;20277;-66
2022/06/14 01:57:34;;;;;;;;;;;14.60;72.40;;;13.64;74.01;96512.56;5004612;28;19991;-66
2022/06/14 02:00:02;;;;;;;;;;;14.70;72.10;;;13.60;74.45;96516.59;5037282;28;20030;-66
2022/06/14 02:02:31;;;;;;;;;;;14.60;72.20;;;13.58;73.85;96511.53;5031608;28;19921;-66
2022/06/14 02:05:02;;;;;;;;;;;14.60;72.30;;;13.51;74.08;96509.84;5009264;28;19917;-66
2022/06/14 02:08:00;;;;;;;;;;;14.60;72.60;;;13.54;74.90;96517.38;5004819;28;20629;-66
2022/06/14 02:10:36;;;;;;;;;;;14.60;72.60;;;13.51;74.10;96515.94;5008664;28;19972;-66
2022/06/14 02:13:15;;;;;;;;;;;14.60;72.50;;;13.47;74.08;96510.25;5023520;28;19939;-66
2022/06/14 02:15:55;;;;;;;;;;;14.60;72.30;;;13.44;73.62;96505.34;5042253;28;19970;-66
2022/06/14 02:18:40;;;;;;;;;;;14.50;72.70;;;13.40;75.21;96504.13;5019900;28;19921;-66
2022/06/14 02:21:13;;;;;;;;;;;14.50;73.00;;;13.35;75.12;96506.53;5008537;28;20380;-66
2022/06/14 02:23:46;;;;;;;;;;;14.40;73.40;;;13.32;75.08;96508.72;5004800;28;19956;-66
2022/06/14 02:26:18;;;;;;;;;;;14.40;73.50;;;13.30;75.29;96511.56;5038255;28;20306;-66
2022/06/14 02:28:49;;;;;;;;;;;14.40;73.50;;;13.28;74.76;96513.59;5047443;28;19917;-66
2022/06/14 02:31:21;;;;;;;;;;;14.40;73.40;;;13.26;73.61;96512.16;5012625;28;20063;-66
2022/06/14 02:33:50;;;;;;;;;;;14.30;73.00;;;13.22;73.22;96517.03;4998502;28;19925;-66
2022/06/14 02:36:21;;;;;;;;;;;14.30;73.00;;;13.18;74.29;96505.22;5041193;28;20381;-66
2022/06/14 02:39:02;;;;;;;;;;;14.20;73.20;;;13.16;74.25;96501.94;5008171;28;19929;-66
2022/06/14 02:41:45;;;;;;;;;;;14.20;73.50;;;13.13;75.14;96497.88;5019464;28;19924;-66
2022/06/14 02:44:20;;;;;;;;;;;14.10;73.70;;;13.12;75.48;96506.75;5021930;28;19964;-67
2022/06/14 02:46:49;;;;;;;;;;;14.20;73.60;;;13.09;75.22;96507.16;4997487;28;19929;-66
2022/06/14 02:49:21;;;;;;;;;;;14.20;73.60;;;13.08;76.11;96510.00;5016812;28;19917;-66
2022/06/14 02:51:50;;;;;;;;;;;14.20;73.60;;;13.03;75.60;96501.84;5017840;28;19925;-66
2022/06/14 02:54:20;;;;;;;;;;;14.10;73.80;;;13.01;75.78;96495.94;5045796;28;19921;-66
2022/06/14 02:56:58;;;;;;;;;;;14.10;73.80;;;12.98;76.11;96498.97;4977710;28;19910;-66
2022/06/14 02:59:30;;;;;;;;;;;14.00;73.90;;;12.94;76.94;96497.75;5006824;28;19928;-66
2022/06/14 03:02:03;;;;;;;;;;;14.00;74.30;;;12.94;76.70;96508.31;4993491;28;20009;-66
2022/06/14 03:05:13;;;;;;;;;;;14.00;74.50;;;12.91;76.65;96506.06;5006211;28;20342;-66
2022/06/14 03:07:53;;;;;;;;;;;14.00;74.60;;;12.88;75.71;96505.41;5033096;28;19929;-66
2022/06/14 03:10:19;;;;;;;;;;;14.00;74.40;;;12.91;75.44;96506.06;5027684;28;20280;-66
2022/06/14 03:12:59;;;;;;;;;;;14.00;74.30;;;12.85;75.29;96511.06;5032577;28;19933;-66
2022/06/14 03:15:39;;;;;;;;;;;13.90;74.40;;;12.80;75.49;96508.19;5017312;28;20323;-66
2022/06/14 03:18:21;;;;;;;;;;;13.90;74.50;;;12.77;74.92;96503.31;5012252;28;20376;-66
2022/06/14 03:21:05;;;;;;;;;;;13.90;74.40;;;12.81;75.16;96514.28;5001299;28;19925;-66
2022/06/14 03:23:39;;;;;;;;;;;14.00;74.00;;;12.81;75.24;96506.38;5033458;28;20350;-66
2022/06/14 03:26:15;;;;;;;;;;;13.90;74.20;;;12.78;75.08;96507.56;5044891;28;19913;-66
2022/06/14 03:29:14;;;;;;;;;;;13.90;73.90;;;12.75;74.98;96510.59;5016980;28;20026;-66
2022/06/14 03:31:50;;;;;;;;;;;13.90;73.90;;;12.71;74.79;96498.81;5028764;28;19971;-66
2022/06/14 03:34:16;;;;;;;;;;;13.80;73.90;;;12.69;75.18;96505.28;5030351;28;19964;-66
2022/06/14 03:36:41;;;;;;;;;;;13.70;74.20;;;12.65;74.52;96489.00;5030981;28;20815;-66
2022/06/14 03:39:15;;;;;;;;;;;13.70;74.00;;;12.63;74.45;96495.47;5022270;28;19937;-65
2022/06/14 03:41:43;;;;;;;;;;;13.70;74.10;;;12.64;74.94;96500.56;5014799;28;19924;-64
2022/06/14 03:44:09;;;;;;;;;;;13.70;73.80;;;12.64;76.50;96497.91;4992464;28;20312;-65
2022/06/14 03:46:43;;;;;;;;;;;13.70;74.00;;;12.64;76.13;96508.47;5005983;28;19929;-64
2022/06/14 03:49:13;;;;;;;;;;;13.70;74.10;;;12.62;75.83;96505.22;5012926;28;19967;-65
2022/06/14 03:51:52;;;;;;;;;;;13.80;74.00;;;12.65;76.18;96510.09;5007938;28;20415;-65
2022/06/14 03:54:30;;;;;;;;;;;13.80;73.90;;;12.65;76.33;96504.84;5012491;28;19920;-64
2022/06/14 03:57:30;;;;;;;;;;;13.80;74.10;;;12.64;76.26;96512.94;5008258;28;19940;-64
2022/06/14 04:00:11;;;;;;;;;;;13.70;74.10;;;12.63;76.34;96512.13;5033546;28;20314;-64
2022/06/14 04:02:56;;;;;;;;;;;13.70;74.00;;;12.65;75.71;96512.75;5020793;28;19925;-64
2022/06/14 04:05:31;;;;;;;;;;;13.80;73.80;;;12.65;76.59;96515.38;5019585;28;20000;-64
2022/06/14 04:08:20;;;;;;;;;;;13.80;74.00;;;12.63;77.14;96512.13;5021874;28;19982;-66
2022/06/14 04:11:02;;;;;;;;;;;13.80;74.10;;;12.65;76.90;96517.22;5019727;28;20010;-65
2022/06/14 04:13:43;;;;;;;;;;;13.90;74.30;;;12.66;77.34;96517.03;5020866;28;19962;-65
2022/06/14 04:16:26;;;;;;;;;;;13.90;74.20;;;12.67;77.53;96517.84;5002834;28;19917;-64
2022/06/14 04:18:51;;;;;;;;;;;14.00;74.30;;;12.69;78.25;96521.94;5037415;28;19924;-65
2022/06/14 04:21:45;;;;;;;;;;;14.10;74.50;;;12.71;78.52;96517.28;5029099;28;19939;-65
2022/06/14 04:24:26;;;;;;;;;;;14.00;74.70;;;12.73;78.71;96512.63;5027311;28;19917;-65
2022/06/14 04:26:59;;;;;;;;;;;14.10;74.70;;;12.74;78.35;96508.97;5030357;28;20407;-65
2022/06/14 04:29:32;;;;;;;;;;;14.10;74.80;;;12.79;78.53;96516.31;5039213;28;20255;-65
2022/06/14 04:31:59;;;;;;;;;;;14.10;74.70;;;12.80;78.40;96523.22;5013019;28;19917;-65
2022/06/14 04:34:41;;;;;;;;;;;14.10;74.60;;;12.81;78.37;96517.75;5013171;28;19949;-65
2022/06/14 04:37:10;;;;;;;;;;;14.20;74.70;;;12.86;78.73;96517.97;5010708;28;19917;-65
2022/06/14 04:39:55;;;;;;;;;;;14.20;74.70;;;12.91;78.79;96524.53;5022661;28;20451;-65
2022/06/14 04:42:49;;;;;;;;;;;14.30;74.50;;;12.93;77.36;96519.88;5008516;28;20554;-65
2022/06/14 04:45:16;;;;;;;;;;;14.30;74.30;;;12.97;77.70;96534.31;5026446;28;19923;-66
2022/06/14 04:47:51;;;;;;;;;;;14.40;74.40;;;12.99;77.89;96532.28;5012393;28;19917;-70
2022/06/14 04:50:29;;;;;;;;;;;14.40;74.60;;;13.03;78.19;96533.53;5013911;28;19944;-66
2022/06/14 04:53:01;;;;;;;;;;;14.50;74.50;;;13.06;78.85;96522.59;5010765;28;19917;-66
2022/06/14 04:55:45;;;;;;;;;;;14.50;74.50;;;13.08;78.21;96520.56;5005628;28;19917;-65
2022/06/14 04:58:22;;;;;;;;;;;14.50;74.60;;;13.12;78.35;96513.88;5028061;28;20384;-67
2022/06/14 05:00:56;;;;;;;;;;;14.60;74.40;;;13.16;78.56;96517.78;5007538;28;19976;-67
2022/06/14 05:03:24;;;;;;;;;;;14.70;74.20;;;13.25;78.52;96527.19;5008785;28;19917;-69
2022/06/14 05:05:59;;;;;;;;;;;14.70;74.30;;;13.30;77.99;96519.50;5038528;28;20066;-62
2022/06/14 05:08:30;;;;;;;;;;;14.80;74.20;;;13.36;78.87;96515.28;5008687;28;19949;-68
2022/06/14 05:11:04;;;;;;;;;;;14.80;74.50;;;13.41;79.04;96520.78;5021561;28;19962;-63
2022/06/14 05:13:42;;;;;;;;;;;14.90;74.40;;;13.49;79.28;96513.50;5005015;28;19929;-62
2022/06/14 05:16:10;;;;;;;;;;;15.00;74.40;;;13.56;80.32;96515.34;5019989;28;19925;-62
2022/06/14 05:19:12;;;;;;;;;;;15.10;74.90;;;13.62;80.39;96512.75;5022720;28;19917;-62
2022/06/14 05:22:10;;;;;;;;;;;15.20;75.10;;;13.71;78.21;96516.03;5007134;28;19922;-67
2022/06/14 05:24:36;;;;;;;;;;;15.20;73.90;;;13.77;78.20;96513.38;4997693;28;19965;-63
2022/06/14 05:27:32;;;;;;;;;;;15.40;72.80;;;13.89;77.62;96518.94;5001412;28;20016;-64
2022/06/14 05:30:28;;;;;;;;;;;15.50;72.40;;;14.00;76.22;96520.97;5026154;28;19921;-64
2022/06/14 05:33:09;;;;;;;;;;;15.60;71.50;;;14.13;76.64;96528.16;5018079;28;19924;-65
2022/06/14 05:35:41;;;;;;;;;;;15.80;72.30;;;14.22;77.04;96519.00;5003727;28;20368;-64
2022/06/14 05:38:36;;;;;;;;;;;15.90;72.70;;;14.38;76.37;96523.09;5017638;28;20738;-63
2022/06/14 05:41:03;;;;;;;;;;;16.10;70.60;;;14.49;74.49;96527.03;5005780;28;19972;-63
2022/06/14 05:43:38;;;;;;;;;;;16.30;70.00;;;14.62;74.76;96525.19;5006540;28;19929;-63
2022/06/14 05:46:13;;;;;;;;;;;16.50;69.40;;;14.77;75.12;96532.09;5011865;28;19917;-63
2022/06/14 05:48:43;;;;;;;;;;;16.60;68.70;;;14.90;73.19;96524.13;4991067;28;19921;-64
2022/06/14 05:51:10;;;;;;;;;;;16.80;67.90;;;15.06;73.47;96526.38;5042096;28;19924;-64
2022/06/14 05:53:46;;;;;;;;;;;17.00;67.30;;;15.21;73.24;96534.09;5009530;28;19921;-62
2022/06/14 05:56:35;;;;;;;;;;;17.10;66.80;;;15.35;73.25;96524.25;5006210;28;19932;-62
2022/06/14 05:59:06;;;;;;;;;;;17.30;66.30;;;15.53;72.84;96532.38;5024305;28;19928;-62
2022/06/14 06:01:36;;;;;;;;;;;17.50;66.30;;;15.67;71.63;96534.00;4970896;28;19921;-63
2022/06/14 06:04:21;;;;;;;;;;;17.70;64.90;;;15.87;71.03;96534.72;5009750;28;19917;-63
2022/06/14 06:06:49;;;;;;;;;;;17.90;64.00;;;16.06;68.12;96534.81;5014886;28;19924;-63
2022/06/14 06:09:21;;;;;;;;;;;18.10;61.10;;;16.25;68.48;96536.53;5002214;28;19927;-63
2022/06/14 06:11:50;;;;;;;;;;;18.30;60.40;;;16.43;65.74;96533.97;5005041;28;19921;-62
2022/06/14 06:14:18;;;;;;;;;;;18.50;58.00;;;16.63;64.33;96535.69;5035321;28;19917;-62
2022/06/14 06:17:06;;;;;;;;;;;18.70;56.50;;;16.84;65.02;96527.38;5047660;28;19968;-63
2022/06/14 06:19:50;;;;;;;;;;;18.90;56.80;;;17.04;64.77;96529.84;5014901;28;20371;-63
2022/06/14 06:22:46;;;;;;;;;;;19.10;56.20;;;17.27;64.76;96534.53;5009256;28;19951;-62
2022/06/14 06:25:15;;;;;;;;;;;19.50;56.30;;;17.35;63.04;96515.63;4995429;28;19921;-63
2022/06/14 06:27:46;;;;;;;;;;;19.60;54.20;;;17.55;63.12;96529.53;5011954;28;20295;-64
2022/06/14 06:30:17;;;;;;;;;;;19.80;53.70;;;17.71;64.09;96536.13;5047665;28;19944;-63
2022/06/14 06:32:43;;;;;;;;;;;20.00;54.10;;;17.82;62.63;96532.69;5018366;28;19986;-64
2022/06/14 06:35:09;;;;;;;;;;;20.30;52.90;;;18.00;60.90;96523.88;5016394;28;19921;-62
2022/06/14 06:37:46;;;;;;;;;;;20.50;51.90;;;18.14;62.97;96535.19;5010907;28;20042;-62
2022/06/14 06:40:15;;;;;;;;;;;20.70;52.80;;;18.29;61.00;96539.03;5006469;28;19988;-62
2022/06/14 06:43:05;;;;;;;;;;;20.90;51.10;;;18.46;59.81;96527.75;5015614;28;19952;-65
2022/06/14 06:45:33;;;;;;;;;;;21.10;50.50;;;18.58;60.49;96537.41;5015668;28;19928;-64
2022/06/14 06:48:19;;;;;;;;;;;21.30;51.30;;;18.78;59.61;96536.28;5014157;28;19939;-64
2022/06/14 06:50:47;;;;;;;;;;;21.50;49.70;;;18.89;59.71;96528.31;5027365;28;20000;-64
2022/06/14 06:53:18;;;;;;;;;;;21.60;49.50;;;19.07;59.93;96527.41;5037137;28;19917;-64
2022/06/14 06:55:45;;;;;;;;;;;21.80;48.90;;;19.24;58.89;96530.19;5042664;28;19972;-61
2022/06/14 06:58:21;;;;;;;;;;;22.10;47.80;;;19.41;57.19;96531.09;5013308;28;19963;-62
2022/06/14 07:00:47;;;;;;;;;;;22.20;46.30;;;19.56;59.51;96519.97;5009300;28;20401;-62
2022/06/14 07:03:40;;;;;;;;;;;22.50;47.90;;;19.73;57.86;96522.72;5026501;28;19917;-63
2022/06/14 07:06:07;;;;;;;;;;;22.70;46.50;;;19.83;56.84;96522.91;5028423;28;19993;-62
2022/06/14 07:09:16;;;;;;;;;;;22.90;45.10;;;19.98;57.36;96520.53;4970038;28;19917;-62
2022/06/14 07:12:02;;;;;;;;;;;23.10;45.10;;;20.11;57.37;96519.44;4950354;28;19933;-62
2022/06/14 07:14:31;;;;;;;;;;;23.20;45.60;;;20.23;57.97;96530.09;4970399;28;20337;-64
2022/06/14 07:17:03;;;;;;;;;;;23.40;45.10;;;20.33;56.40;96532.94;5015179;28;19921;-65
2022/06/14 07:19:48;;;;;;;;;;;23.50;43.70;;;20.45;55.32;96528.38;5011705;28;19986;-65
2022/06/14 07:22:20;;;;;;;;;;;23.70;43.00;;;20.60;56.14;96534.00;5011525;28;19917;-63
2022/06/14 07:24:56;;;;;;;;;;;23.80;43.70;;;20.72;53.33;96516.00;5031879;28;19917;-63
2022/06/14 07:27:24;;;;;;;;;;;24.00;41.70;;;20.84;54.41;96528.50;4991138;28;19917;-64
2022/06/14 07:30:14;;;;;;;;;;;24.00;41.70;;;20.99;54.28;96520.69;5012683;28;19924;-64
2022/06/14 07:32:46;;;;;;;;;;;24.20;42.00;;;21.12;51.27;96519.56;5022799;28;19942;-62
2022/06/14 07:35:15;;;;;;;;;;;24.50;39.40;;;21.25;51.64;96520.03;4988986;28;19939;-64
2022/06/14 07:37:53;;;;;;;;;;;24.70;39.90;;;21.41;52.80;96523.75;5014793;28;20297;-68
2022/06/14 07:40:27;;;;;;;;;;;25.00;41.20;;;21.59;51.78;96519.97;5024974;28;20309;-62
2022/06/14 07:43:13;;;;;;;;;;;25.20;40.30;;;21.77;50.43;96510.84;5044346;28;19999;-62
2022/06/14 07:45:40;;;;;;;;;;;25.40;38.40;;;21.94;48.19;96517.72;5045514;28;19933;-62
2022/06/14 07:48:29;;;;;;;;;;;25.60;36.30;;;22.07;49.73;96526.47;5012772;28;19917;-68
2022/06/14 07:51:16;;;;;;;;;;;25.60;37.90;;;22.22;49.69;96513.25;5013650;28;20006;-62
2022/06/14 07:53:58;;;;;;;;;;;25.70;38.00;;;22.36;49.51;96513.66;5043164;28;19964;-63
2022/06/14 07:56:35;;;;;;;;;;;26.00;36.90;;;22.54;49.79;96516.78;5048784;28;19924;-63
2022/06/14 07:59:22;;;;;;;;;;;26.10;38.70;;;22.75;49.64;96511.59;5008618;28;19922;-62
2022/06/14 08:02:00;;;;;;;;;;;26.40;37.20;;;22.87;46.71;96509.59;5012324;28;20001;-62
2022/06/14 08:04:30;;;;;;;;;;;26.50;35.00;;;22.96;46.86;96510.72;4999252;28;19960;-62
2022/06/14 08:06:58;;;;;;;;;;;26.30;35.40;;;23.07;47.32;96512.41;5026909;28;19924;-62
2022/06/14 08:09:47;;;;;;;;;;;26.50;35.70;;;23.25;49.80;96511.19;5000009;28;19917;-63
2022/06/14 08:12:20;;;;;;;;;;;26.80;38.20;;;23.41;46.44;96510.22;5016548;28;19935;-64
2022/06/14 08:14:46;;;;;;;;;;;26.90;34.20;;;23.56;47.53;96511.38;5029494;28;20004;-63
2022/06/14 08:17:15;;;;;;;;;;;27.10;35.30;;;23.69;45.92;96502.84;5023753;28;19936;-65
2022/06/14 08:19:46;;;;;;;;;;;27.30;34.50;;;23.88;45.73;96504.00;5020597;28;20348;-62
2022/06/14 08:22:18;;;;;;;;;;;27.60;34.30;;;24.05;46.77;96509.97;5034234;28;20218;-62
2022/06/14 08:24:49;;;;;;;;;;;27.70;35.10;;;24.25;46.87;96503.84;4994741;28;20366;-64
2022/06/14 08:27:18;;;;;;;;;;;28.00;34.40;;;24.41;45.33;96515.44;5006112;28;19917;-63
2022/06/14 08:29:49;;;;;;;;;;;28.10;33.90;;;24.56;44.35;96503.91;5027152;28;19917;-65
2022/06/14 08:32:46;;;;;;;;;;;28.40;32.50;;;24.75;45.75;96510.41;5032546;28;19936;-64
2022/06/14 08:35:23;;;;;;;;;;;28.60;33.30;;;24.97;45.30;96510.94;5007237;28;19974;-63
2022/06/14 08:38:01;;;;;;;;;;;28.90;33.70;;;25.17;44.91;96510.13;5005889;28;20004;-63
2022/06/14 08:40:52;;;;;;;;;;;29.10;32.60;;;25.39;44.77;96507.13;5023692;28;20013;-63
2022/06/14 08:43:26;;;;;;;;;;;29.30;32.50;;;25.57;43.13;96503.00;5018094;28;19934;-65
2022/06/14 08:46:04;;;;;;;;;;;29.40;31.40;;;25.80;43.58;96509.69;5027530;28;19924;-64
2022/06/14 08:48:41;;;;;;;;;;;29.60;31.20;;;26.00;41.74;96496.13;5010910;28;19926;-63
2022/06/14 08:51:33;;;;;;;;;;;29.60;29.80;;;26.24;41.85;96504.38;5001548;28;19917;-64
2022/06/14 08:54:24;;;;;;;;;;;29.80;30.40;;;26.55;41.95;96491.53;5010425;28;20234;-63
2022/06/14 08:57:23;;;;;;;;;;;30.00;30.10;;;26.93;41.33;96499.84;5016134;28;19928;-62
2022/06/14 09:00:04;;;;;;;;;;;30.40;31.20;;;27.24;40.03;96498.53;5022747;28;19921;-64
2022/06/14 09:02:47;;;;;;;;;;;30.50;30.40;;;27.43;40.11;96488.59;5032345;28;19921;-66
2022/06/14 09:05:25;;;;;;;;;;;30.50;29.80;;;27.66;39.64;96495.13;5036171;28;19932;-66
2022/06/14 09:08:13;;;;;;;;;;;30.80;30.70;;;27.86;39.33;96490.59;5018691;28;20339;-63
2022/06/14 09:11:04;;;;;;;;;;;30.80;29.80;;;28.10;40.29;96487.84;5019364;28;20370;-64
2022/06/14 09:13:50;;;;;;;;;;;31.10;31.10;;;28.27;41.94;96493.56;5012216;28;19937;-64
2022/06/14 09:16:30;;;;;;;;;;;31.20;31.10;;;28.48;41.07;96484.06;5005194;28;19925;-64
2022/06/14 09:19:06;;;;;;;;;;;31.50;30.70;;;28.58;38.81;96477.69;5022685;28;19921;-65
2022/06/14 09:21:51;;;;;;;;;;;31.40;28.00;;;28.62;38.25;96479.50;5029001;28;19921;-65
2022/06/14 09:24:20;;;;;;;;;;;31.50;27.50;;;28.77;38.39;96475.75;5026466;28;20273;-65
2022/06/14 09:27:19;;;;;;;;;;;31.70;27.90;;;28.83;36.92;96481.91;5029600;28;20370;-63
2022/06/14 09:30:03;;;;;;;;;;;31.60;25.90;;;28.93;37.73;96479.84;5014874;28;19917;-64
2022/06/14 09:35:46;;;;;;;;;;;32.10;27.40;;;29.23;37.82;96478.50;5030130;28;20475;-65
2022/06/14 09:38:20;;;;;;;;;;;32.30;27.60;;;29.36;37.79;96481.53;5006306;28;20342;-67
2022/06/14 09:41:21;;;;;;;;;;;32.50;26.90;;;29.58;38.35;96473.53;5011372;28;20060;-65
2022/06/14 09:44:24;;;;;;;;;;;32.70;27.60;;;29.74;36.39;96474.03;4968380;28;19918;-68
2022/06/14 09:47:02;;;;;;;;;;;33.00;25.80;;;29.85;35.47;96473.53;4989681;28;19921;-66
2022/06/14 09:49:47;;;;;;;;;;;33.10;25.00;;;30.09;36.86;96472.50;5013813;28;19935;-66
2022/06/14 09:52:30;;;;;;;;;;;33.50;26.50;;;30.20;34.97;96462.25;4992108;28;19916;-66
2022/06/14 09:55:24;;;;;;;;;;;33.50;24.80;;;30.37;36.16;96467.84;5016232;28;19921;-66
2022/06/14 09:58:28;;;;;;;;;;;33.90;25.80;;;30.53;35.25;96465.53;5019545;28;19917;-62
2022/06/14 10:01:16;;;;;;;;;;;34.20;24.90;;;30.72;34.49;96468.91;4992541;28;20032;-62
2022/06/14 10:04:12;;;;;;;;;;;34.60;23.90;;;30.92;34.61;96473.03;5022147;28;19990;-67
2022/06/14 10:07:02;;;;;;;;;;;34.70;21.80;;;31.06;34.98;96471.06;5027505;28;19924;-65
2022/06/14 10:09:46;;;;;;;;;;;34.90;23.90;;;31.47;35.27;96473.53;5016963;28;20359;-65
2022/06/14 10:12:47;;;;;;;;;;;35.40;23.50;;;31.87;32.39;96466.16;5023431;28;19921;-65
2022/06/14 10:15:49;;;;;;;;;;;35.80;23.10;;;32.16;31.85;96462.88;5005593;28;19925;-67
2022/06/14 10:18:18;;;;;;;;;;;35.80;22.00;;;32.34;33.42;96452.81;5024674;28;19923;-67
2022/06/14 10:21:01;;;;;;;;;;;35.90;21.70;;;32.61;32.94;96446.25;5017192;28;19921;-67
2022/06/14 10:23:35;;;;;;;;;;;36.10;21.30;;;32.92;32.73;96448.78;5011297;28;19921;-67
2022/06/14 10:29:14;;;;;;;;;;;37.00;22.10;;;33.58;32.93;96451.16;5017527;28;19971;-65
2022/06/14 10:31:42;;;;;;;;;;;37.30;21.30;;;33.83;33.12;96450.22;5033938;28;20362;-65
2022/06/14 10:34:14;;;;;;;;;;;37.70;21.50;;;34.02;32.11;96447.88;5019253;28;19971;-65
2022/06/14 10:36:51;;;;;;;;;;;37.80;20.40;;;34.39;32.30;96440.72;5033861;28;20345;-65
2022/06/14 10:39:39;;;;;;;;;;;38.20;20.90;;;34.73;32.59;96438.03;5002136;28;19987;-66
2022/06/14 10:42:39;;;;;;;;;;;38.40;20.60;;;35.08;32.68;96441.22;4993787;28;19929;-66
2022/06/14 10:45:17;;;;;;;;;;;38.70;22.00;;;35.47;31.35;96437.91;4992792;28;20368;-66
2022/06/14 10:48:08;;;;;;;;;;;38.50;19.70;;;35.66;30.86;96437.31;5029177;28;19925;-66
2022/06/14 10:50:42;;;;;;;;;;;38.60;19.90;;;35.83;30.23;96433.59;5043876;28;19917;-65
2022/06/14 10:53:12;;;;;;;;;;;38.50;19.80;;;36.00;31.34;96436.09;5014650;28;19924;-66
2022/06/14 10:55:57;;;;;;;;;;;38.70;21.30;;;35.99;28.90;96430.97;5016301;28;20648;-66
2022/06/14 10:58:47;;;;;;;;;;;38.50;19.40;;;36.39;30.34;96422.75;4997691;28;19939;-65
2022/06/14 11:01:24;;;;;;;;;;;38.90;21.00;;;36.67;29.57;96420.84;5026632;28;19921;-64
2022/06/14 11:04:20;;;;;;;;;;;38.80;19.80;;;36.81;28.72;96423.19;5033264;28;19924;-62
2022/06/14 11:07:09;;;;;;;;;;;38.70;18.90;;;36.78;28.08;96423.88;5027124;28;20507;-66
2022/06/14 11:09:50;;;;;;;;;;;38.40;18.80;;;36.90;29.47;96426.59;5017115;28;19927;-65
2022/06/14 11:12:43;;;;;;;;;;;38.60;19.50;;;37.04;27.79;96431.63;5009336;28;20075;-65
2022/06/14 11:15:19;;;;;;;;;;;38.60;18.50;;;37.06;27.68;96421.09;4991297;28;20024;-67
2022/06/14 11:17:56;;;;;;;;;;;38.80;18.00;;;37.08;27.21;96422.34;5010270;28;19917;-64
2022/06/14 11:20:24;;;;;;;;;;;38.70;18.50;;;37.13;26.83;96423.25;5020240;28;19921;-64
2022/06/14 11:23:08;;;;;;;;;;;38.90;17.60;;;37.24;26.82;96419.63;5007257;28;19944;-66
2022/06/14 11:25:51;;;;;;;;;;;39.10;17.60;;;37.32;26.32;96415.13;5028144;28;19921;-66
2022/06/14 11:28:38;;;;;;;;;;;39.10;17.40;;;37.53;25.54;96410.16;4991241;28;19996;-66
2022/06/14 11:31:25;;;;;;;;;;;39.10;16.80;;;37.55;25.91;96407.84;5012663;28;20069;-62
2022/06/14 11:34:22;;;;;;;;;;;39.30;17.60;;;37.68;24.85;96401.13;5005487;28;19917;-64
2022/06/14 11:37:36;;;;;;;;;;;39.30;17.60;;;37.81;25.02;96398.31;5018736;28;20407;-62
2022/06/14 11:40:24;;;;;;;;;;;39.30;16.90;;;37.90;23.81;96393.38;4999376;28;19921;-66
2022/06/14 11:43:28;;;;;;;;;;;39.50;16.60;;;38.06;25.88;96394.16;5016573;28;19917;-65
2022/06/14 11:46:23;;;;;;;;;;;39.90;17.40;;;38.12;25.34;96387.22;5009372;28;19917;-66
2022/06/14 11:49:00;;;;;;;;;;;39.60;16.60;;;38.25;25.62;96390.63;4982350;28;20307;-65
2022/06/14 11:51:37;;;;;;;;;;;40.00;17.00;;;38.52;25.26;96389.63;5022596;28;19917;-64
2022/06/14 11:54:14;;;;;;;;;;;40.50;17.10;;;38.82;26.18;96392.59;4988543;28;19924;-67
2022/06/14 11:56:54;;;;;;;;;;;40.90;17.90;;;39.07;25.46;96393.06;5012938;28;21272;-65
2022/06/14 11:59:48;;;;;;;;;;;41.10;17.90;;;39.40;26.24;96381.44;5004467;28;19928;-64
2022/06/14 12:02:32;;;;;;;;;;;41.60;17.80;;;39.56;25.25;96378.53;5028804;28;20429;-66
2022/06/14 12:05:09;;;;;;;;;;;41.60;16.40;;;39.74;25.41;96373.31;5016260;28;19959;-67
2022/06/14 12:07:41;;;;;;;;;;;41.90;17.20;;;39.79;25.36;96364.72;5023754;28;19928;-64
2022/06/14 12:10:22;;;;;;;;;;;42.10;18.10;;;39.84;25.43;96378.19;5008541;28;19925;-65
2022/06/14 12:13:15;;;;;;;;;;;42.00;17.70;;;39.89;23.71;96372.34;5011484;28;19921;-65
2022/06/14 12:15:59;;;;;;;;;;;41.90;15.60;;;39.87;23.59;96362.88;4993344;28;19925;-65